SBI9283 UNNT-USCC
Flight info
| Callsign | SBI9283 |
|---|---|
| Flight time | N/A |
| Altitude | 36000 |
| Route | OGAMA1M OGAMA A308 OSNAB G825 DORON A487 BENAK L158 UTABI UTABI2D |
| Aircraft | A332/M-V/N |
Departure
| Time | N/A |
|---|---|
| Airport | Novosibirsk Tolmachevo Airport (UNNT) |
Arrival
| Time | 2026-04-28 09:04 |
|---|---|
| Airport | Kurchatov Chelyabinsk International Airport (USCC) |
| Time | Latitude | Longitude | Altitude | Speed | Heading |
|---|---|---|---|---|---|
| 2026-04-28 07:10 | 55.60480 | 80.12348 | 30581 ft | 422 kts | 290° |
| 2026-04-28 07:10 | 55.61133 | 80.07330 | 30945 ft | 419 kts | 290° |
| 2026-04-28 07:10 | 55.61780 | 80.02346 | 31294 ft | 417 kts | 290° |
| 2026-04-28 07:10 | 55.62414 | 79.97369 | 31641 ft | 415 kts | 289° |
| 2026-04-28 07:11 | 55.62929 | 79.92415 | 31983 ft | 416 kts | 286° |
| 2026-04-28 07:11 | 55.63308 | 79.87378 | 32329 ft | 416 kts | 284° |
| 2026-04-28 07:11 | 55.63548 | 79.82290 | 32675 ft | 416 kts | 281° |
| 2026-04-28 07:11 | 55.63688 | 79.77228 | 33020 ft | 414 kts | 280° |
| 2026-04-28 07:12 | 55.63815 | 79.72124 | 33371 ft | 412 kts | 280° |
| 2026-04-28 07:12 | 55.63935 | 79.67115 | 33718 ft | 409 kts | 280° |
| 2026-04-28 07:12 | 55.64055 | 79.62130 | 34065 ft | 407 kts | 280° |
| 2026-04-28 07:12 | 55.64171 | 79.57189 | 34407 ft | 404 kts | 280° |
| 2026-04-28 07:13 | 55.64285 | 79.52271 | 34720 ft | 401 kts | 280° |
| 2026-04-28 07:13 | 55.64397 | 79.47338 | 35032 ft | 398 kts | 280° |
| 2026-04-28 07:13 | 55.64505 | 79.42499 | 35343 ft | 395 kts | 279° |
| 2026-04-28 07:13 | 55.64611 | 79.37701 | 35625 ft | 392 kts | 279° |
| 2026-04-28 07:14 | 55.64716 | 79.32889 | 35903 ft | 389 kts | 278° |
| 2026-04-28 07:14 | 55.64814 | 79.28149 | 36238 ft | 386 kts | 278° |
| 2026-04-28 07:14 | 55.64912 | 79.23415 | 36397 ft | 389 kts | 278° |
| 2026-04-28 07:15 | 55.65110 | 79.13734 | 36408 ft | 401 kts | 278° |
| 2026-04-28 07:15 | 55.65304 | 79.03753 | 36401 ft | 413 kts | 278° |
| 2026-04-28 07:16 | 55.65494 | 78.93516 | 36405 ft | 423 kts | 277° |
| 2026-04-28 07:16 | 55.65679 | 78.83057 | 36427 ft | 431 kts | 277° |
| 2026-04-28 07:17 | 55.65856 | 78.72485 | 36424 ft | 435 kts | 277° |
| 2026-04-28 07:17 | 55.66025 | 78.61815 | 36404 ft | 435 kts | 277° |
| 2026-04-28 07:18 | 55.66185 | 78.51122 | 36408 ft | 435 kts | 277° |
| 2026-04-28 07:18 | 55.66337 | 78.40469 | 36400 ft | 435 kts | 277° |
| 2026-04-28 07:19 | 55.66481 | 78.29810 | 36393 ft | 435 kts | 276° |
| 2026-04-28 07:19 | 55.66616 | 78.19150 | 36402 ft | 435 kts | 276° |
| 2026-04-28 07:20 | 55.66740 | 78.08433 | 36406 ft | 436 kts | 276° |
| 2026-04-28 07:20 | 55.66856 | 77.97797 | 36414 ft | 436 kts | 276° |
| 2026-04-28 07:21 | 55.66965 | 77.87079 | 36416 ft | 437 kts | 276° |
| 2026-04-28 07:21 | 55.67070 | 77.76346 | 36419 ft | 437 kts | 276° |
| 2026-04-28 07:22 | 55.67210 | 77.60274 | 36418 ft | 437 kts | 276° |
| 2026-04-28 07:22 | 55.67291 | 77.49547 | 36426 ft | 436 kts | 276° |
| 2026-04-28 07:23 | 55.67363 | 77.38817 | 36421 ft | 437 kts | 276° |
| 2026-04-28 07:23 | 55.67424 | 77.28101 | 36423 ft | 438 kts | 275° |
| 2026-04-28 07:24 | 55.67477 | 77.17384 | 36420 ft | 438 kts | 275° |
| 2026-04-28 07:24 | 55.67520 | 77.06657 | 36411 ft | 438 kts | 275° |
| 2026-04-28 07:25 | 55.67554 | 76.95913 | 36406 ft | 438 kts | 275° |
| 2026-04-28 07:25 | 55.67580 | 76.85172 | 36412 ft | 438 kts | 275° |
| 2026-04-28 07:26 | 55.67597 | 76.74373 | 36405 ft | 438 kts | 275° |
| 2026-04-28 07:26 | 55.67603 | 76.63699 | 36402 ft | 438 kts | 274° |
| 2026-04-28 07:27 | 55.67601 | 76.52924 | 36402 ft | 438 kts | 274° |
| 2026-04-28 07:27 | 55.67588 | 76.42177 | 36397 ft | 439 kts | 274° |
| 2026-04-28 07:28 | 55.67567 | 76.31379 | 36402 ft | 439 kts | 273° |
| 2026-04-28 07:28 | 55.67535 | 76.20582 | 36404 ft | 440 kts | 273° |
| 2026-04-28 07:29 | 55.67495 | 76.09829 | 36407 ft | 440 kts | 273° |
| 2026-04-28 07:29 | 55.67446 | 75.98997 | 36400 ft | 440 kts | 273° |
| 2026-04-28 07:30 | 55.67387 | 75.88205 | 36395 ft | 440 kts | 273° |
| 2026-04-28 07:30 | 55.67321 | 75.77490 | 36393 ft | 439 kts | 273° |
| 2026-04-28 07:31 | 55.67242 | 75.66670 | 36391 ft | 440 kts | 273° |
| 2026-04-28 07:31 | 55.67062 | 75.55907 | 36389 ft | 441 kts | 271° |
| 2026-04-28 07:32 | 55.66737 | 75.45053 | 36385 ft | 441 kts | 270° |
| 2026-04-28 07:32 | 55.66405 | 75.34263 | 36385 ft | 441 kts | 270° |
| 2026-04-28 07:33 | 55.66065 | 75.23440 | 36385 ft | 443 kts | 270° |
| 2026-04-28 07:33 | 55.65716 | 75.12602 | 36384 ft | 443 kts | 270° |
| 2026-04-28 07:34 | 55.65359 | 75.01758 | 36377 ft | 443 kts | 269° |
| 2026-04-28 07:34 | 55.64988 | 74.90908 | 36372 ft | 443 kts | 269° |
| 2026-04-28 07:35 | 55.64605 | 74.80059 | 36375 ft | 443 kts | 269° |
| 2026-04-28 07:35 | 55.64217 | 74.69257 | 36377 ft | 443 kts | 269° |
| 2026-04-28 07:36 | 55.63818 | 74.58379 | 36377 ft | 443 kts | 269° |
| 2026-04-28 07:36 | 55.63413 | 74.47581 | 36374 ft | 443 kts | 269° |
| 2026-04-28 07:37 | 55.62997 | 74.36726 | 36376 ft | 444 kts | 269° |
| 2026-04-28 07:37 | 55.62570 | 74.25849 | 36371 ft | 444 kts | 268° |
| 2026-04-28 07:38 | 55.62138 | 74.15051 | 36375 ft | 444 kts | 268° |
| 2026-04-28 07:38 | 55.61692 | 74.04142 | 36373 ft | 445 kts | 268° |
| 2026-04-28 07:39 | 55.61237 | 73.93277 | 36371 ft | 445 kts | 267° |
| 2026-04-28 07:39 | 55.60774 | 73.82454 | 36366 ft | 445 kts | 267° |
| 2026-04-28 07:40 | 55.60326 | 73.71564 | 36367 ft | 445 kts | 269° |
| 2026-04-28 07:40 | 55.60348 | 73.60674 | 36364 ft | 444 kts | 275° |
| 2026-04-28 07:41 | 55.60932 | 73.49881 | 36357 ft | 444 kts | 278° |
| 2026-04-28 07:41 | 55.61627 | 73.39073 | 36353 ft | 443 kts | 278° |
| 2026-04-28 07:42 | 55.62307 | 73.28272 | 36352 ft | 444 kts | 277° |
| 2026-04-28 07:42 | 55.62968 | 73.17499 | 36353 ft | 444 kts | 277° |
| 2026-04-28 07:43 | 55.63360 | 73.06638 | 36351 ft | 444 kts | 271° |
| 2026-04-28 07:43 | 55.63338 | 72.95726 | 36352 ft | 445 kts | 270° |
| 2026-04-28 07:44 | 55.63290 | 72.84833 | 36358 ft | 445 kts | 270° |
| 2026-04-28 07:44 | 55.63235 | 72.73934 | 36354 ft | 445 kts | 270° |
| 2026-04-28 07:45 | 55.63171 | 72.63069 | 36353 ft | 445 kts | 270° |
| 2026-04-28 07:45 | 55.63098 | 72.52120 | 36354 ft | 445 kts | 270° |
| 2026-04-28 07:46 | 55.63015 | 72.41244 | 36350 ft | 445 kts | 270° |
| 2026-04-28 07:46 | 55.62924 | 72.30383 | 36349 ft | 444 kts | 269° |
| 2026-04-28 07:47 | 55.62823 | 72.19443 | 36335 ft | 444 kts | 269° |
| 2026-04-28 07:47 | 55.62712 | 72.08594 | 36336 ft | 444 kts | 269° |
| 2026-04-28 07:48 | 55.62592 | 71.97682 | 36331 ft | 445 kts | 269° |
| 2026-04-28 07:48 | 55.62461 | 71.86793 | 36327 ft | 445 kts | 269° |
| 2026-04-28 07:49 | 55.62322 | 71.75917 | 36332 ft | 445 kts | 269° |
| 2026-04-28 07:49 | 55.62174 | 71.65022 | 36328 ft | 445 kts | 269° |
| 2026-04-28 07:50 | 55.62015 | 71.54111 | 36325 ft | 445 kts | 269° |
| 2026-04-28 07:50 | 55.61847 | 71.43202 | 36322 ft | 445 kts | 269° |
| 2026-04-28 07:51 | 55.61640 | 71.30493 | 36319 ft | 445 kts | 268° |
| 2026-04-28 07:51 | 55.61482 | 71.21439 | 36315 ft | 445 kts | 268° |
| 2026-04-28 07:52 | 55.61284 | 71.10503 | 36315 ft | 445 kts | 268° |
| 2026-04-28 07:52 | 55.61080 | 70.99624 | 36312 ft | 445 kts | 268° |
| 2026-04-28 07:53 | 55.60867 | 70.88749 | 36311 ft | 445 kts | 268° |
| 2026-04-28 07:53 | 55.60646 | 70.77893 | 36307 ft | 445 kts | 268° |
| 2026-04-28 07:54 | 55.60415 | 70.66998 | 36305 ft | 445 kts | 268° |
| 2026-04-28 07:54 | 55.60174 | 70.56117 | 36300 ft | 445 kts | 268° |
| 2026-04-28 07:55 | 55.59922 | 70.45190 | 36298 ft | 444 kts | 268° |
| 2026-04-28 07:55 | 55.59663 | 70.34351 | 36295 ft | 444 kts | 266° |
| 2026-04-28 07:56 | 55.59394 | 70.23437 | 36293 ft | 444 kts | 266° |
| 2026-04-28 07:56 | 55.59117 | 70.12604 | 36288 ft | 444 kts | 266° |
| 2026-04-28 07:57 | 55.58831 | 70.01796 | 36285 ft | 444 kts | 266° |
| 2026-04-28 07:57 | 55.58531 | 69.90876 | 36284 ft | 444 kts | 266° |
| 2026-04-28 07:58 | 55.58224 | 69.80041 | 36278 ft | 444 kts | 266° |
| 2026-04-28 07:58 | 55.57908 | 69.69213 | 36275 ft | 444 kts | 266° |
| 2026-04-28 07:59 | 55.57582 | 69.58360 | 36272 ft | 443 kts | 266° |
| 2026-04-28 07:59 | 55.57248 | 69.47549 | 36267 ft | 443 kts | 266° |
| 2026-04-28 08:00 | 55.56906 | 69.36739 | 36264 ft | 442 kts | 266° |
| 2026-04-28 08:00 | 55.56554 | 69.25975 | 36261 ft | 442 kts | 265° |
| 2026-04-28 08:01 | 55.56282 | 69.15124 | 36260 ft | 442 kts | 267° |
| 2026-04-28 08:01 | 55.56153 | 69.04342 | 36251 ft | 442 kts | 267° |
| 2026-04-28 08:02 | 55.55995 | 68.91709 | 36246 ft | 442 kts | 267° |
| 2026-04-28 08:02 | 55.55875 | 68.82722 | 36242 ft | 442 kts | 267° |
| 2026-04-28 08:03 | 55.55721 | 68.71940 | 36244 ft | 442 kts | 267° |
| 2026-04-28 08:03 | 55.55558 | 68.61115 | 36241 ft | 442 kts | 267° |
| 2026-04-28 08:04 | 55.55386 | 68.50352 | 36237 ft | 442 kts | 267° |
| 2026-04-28 08:04 | 55.55204 | 68.39520 | 36234 ft | 442 kts | 267° |
| 2026-04-28 08:05 | 55.55014 | 68.28754 | 36234 ft | 441 kts | 266° |
| 2026-04-28 08:05 | 55.54816 | 68.17996 | 36234 ft | 441 kts | 266° |
| 2026-04-28 08:06 | 55.54605 | 68.07196 | 36233 ft | 440 kts | 266° |
| 2026-04-28 08:06 | 55.54405 | 67.96436 | 36226 ft | 440 kts | 266° |
| 2026-04-28 08:07 | 55.54243 | 67.85675 | 36221 ft | 440 kts | 266° |
| 2026-04-28 08:07 | 55.54073 | 67.74920 | 36219 ft | 440 kts | 266° |
| 2026-04-28 08:08 | 55.53892 | 67.64198 | 36216 ft | 440 kts | 266° |
| 2026-04-28 08:08 | 55.53700 | 67.53416 | 36217 ft | 440 kts | 266° |
| 2026-04-28 08:09 | 55.53500 | 67.42718 | 36215 ft | 440 kts | 266° |
| 2026-04-28 08:09 | 55.53288 | 67.31919 | 36212 ft | 440 kts | 265° |
| 2026-04-28 08:10 | 55.53071 | 67.21242 | 36213 ft | 439 kts | 265° |
| 2026-04-28 08:10 | 55.52843 | 67.10516 | 36211 ft | 439 kts | 265° |
| 2026-04-28 08:11 | 55.52604 | 66.99770 | 36205 ft | 439 kts | 265° |
| 2026-04-28 08:11 | 55.52357 | 66.89040 | 36199 ft | 439 kts | 265° |
| 2026-04-28 08:12 | 55.52100 | 66.78295 | 36194 ft | 439 kts | 265° |
| 2026-04-28 08:12 | 55.51835 | 66.67622 | 36190 ft | 439 kts | 265° |
| 2026-04-28 08:13 | 55.51560 | 66.56872 | 36188 ft | 439 kts | 265° |
| 2026-04-28 08:13 | 55.51276 | 66.46188 | 36183 ft | 439 kts | 265° |
| 2026-04-28 08:14 | 55.50981 | 66.35523 | 36181 ft | 439 kts | 265° |
| 2026-04-28 08:14 | 55.50627 | 66.24838 | 36179 ft | 438 kts | 263° |
| 2026-04-28 08:15 | 55.50253 | 66.14129 | 36174 ft | 437 kts | 263° |
| 2026-04-28 08:15 | 55.49876 | 66.03528 | 36174 ft | 437 kts | 263° |
| 2026-04-28 08:16 | 55.49489 | 65.92846 | 36179 ft | 436 kts | 263° |
| 2026-04-28 08:16 | 55.49098 | 65.82300 | 36167 ft | 436 kts | 263° |
| 2026-04-28 08:17 | 55.48694 | 65.71645 | 36167 ft | 436 kts | 263° |
| 2026-04-28 08:17 | 55.48283 | 65.61026 | 36167 ft | 435 kts | 263° |
| 2026-04-28 08:18 | 55.47866 | 65.50522 | 36161 ft | 434 kts | 263° |
| 2026-04-28 08:18 | 55.47523 | 65.39879 | 36164 ft | 435 kts | 266° |
| 2026-04-28 08:19 | 55.47536 | 65.29307 | 35921 ft | 435 kts | 266° |
| 2026-04-28 08:19 | 55.47554 | 65.24015 | 35805 ft | 435 kts | 266° |
| 2026-04-28 08:19 | 55.47568 | 65.18632 | 35696 ft | 435 kts | 266° |
| 2026-04-28 08:20 | 55.47590 | 65.08062 | 35520 ft | 435 kts | 266° |
| 2026-04-28 08:20 | 55.47601 | 64.97442 | 35373 ft | 434 kts | 266° |
| 2026-04-28 08:21 | 55.47603 | 64.92139 | 35261 ft | 431 kts | 266° |
| 2026-04-28 08:21 | 55.47604 | 64.86938 | 34855 ft | 427 kts | 266° |
| 2026-04-28 08:21 | 55.47600 | 64.81711 | 33945 ft | 430 kts | 266° |
| 2026-04-28 08:21 | 55.47592 | 64.76438 | 32929 ft | 433 kts | 266° |
| 2026-04-28 08:22 | 55.47584 | 64.71236 | 32258 ft | 428 kts | 266° |
| 2026-04-28 08:22 | 55.47575 | 64.66016 | 31752 ft | 421 kts | 266° |
| 2026-04-28 08:22 | 55.47560 | 64.60886 | 31292 ft | 422 kts | 265° |
| 2026-04-28 08:22 | 55.47540 | 64.55746 | 30839 ft | 422 kts | 266° |
| 2026-04-28 08:23 | 55.47519 | 64.50614 | 30420 ft | 422 kts | 265° |
| 2026-04-28 08:23 | 55.47499 | 64.45444 | 30012 ft | 424 kts | 266° |
| 2026-04-28 08:23 | 55.47492 | 64.40274 | 29637 ft | 425 kts | 266° |
| 2026-04-28 08:23 | 55.47489 | 64.35083 | 29292 ft | 424 kts | 266° |
| 2026-04-28 08:24 | 55.47488 | 64.30000 | 28788 ft | 420 kts | 265° |
| 2026-04-28 08:24 | 55.47481 | 64.24826 | 28142 ft | 424 kts | 265° |
| 2026-04-28 08:24 | 55.47472 | 64.19678 | 27603 ft | 427 kts | 265° |
| 2026-04-28 08:24 | 55.47460 | 64.14413 | 27099 ft | 428 kts | 265° |
| 2026-04-28 08:25 | 55.47446 | 64.09165 | 26603 ft | 430 kts | 265° |
| 2026-04-28 08:25 | 55.47430 | 64.03973 | 26124 ft | 430 kts | 265° |
| 2026-04-28 08:25 | 55.47411 | 63.98716 | 25638 ft | 432 kts | 265° |
| 2026-04-28 08:26 | 55.47365 | 63.88172 | 24666 ft | 433 kts | 264° |
| 2026-04-28 08:26 | 55.47339 | 63.82899 | 24183 ft | 434 kts | 264° |
| 2026-04-28 08:26 | 55.47312 | 63.77601 | 23669 ft | 430 kts | 264° |
| 2026-04-28 08:26 | 55.47286 | 63.72400 | 23180 ft | 422 kts | 264° |
| 2026-04-28 08:27 | 55.47255 | 63.67251 | 22666 ft | 420 kts | 264° |
| 2026-04-28 08:27 | 55.47222 | 63.62174 | 22172 ft | 417 kts | 264° |
| 2026-04-28 08:27 | 55.47187 | 63.57114 | 21677 ft | 414 kts | 264° |
| 2026-04-28 08:27 | 55.47150 | 63.52081 | 21159 ft | 412 kts | 264° |
| 2026-04-28 08:28 | 55.47111 | 63.47029 | 20619 ft | 410 kts | 264° |
| 2026-04-28 08:28 | 55.47071 | 63.42088 | 20120 ft | 407 kts | 264° |
| 2026-04-28 08:28 | 55.47030 | 63.37115 | 19596 ft | 405 kts | 264° |
| 2026-04-28 08:28 | 55.46984 | 63.32164 | 19072 ft | 403 kts | 263° |
| 2026-04-28 08:29 | 55.46941 | 63.27286 | 18576 ft | 400 kts | 263° |
| 2026-04-28 08:29 | 55.46896 | 63.22451 | 18081 ft | 398 kts | 263° |
| 2026-04-28 08:29 | 55.46848 | 63.17582 | 17595 ft | 395 kts | 263° |
| 2026-04-28 08:29 | 55.46798 | 63.12742 | 17104 ft | 393 kts | 263° |
| 2026-04-28 08:30 | 55.46745 | 63.08015 | 16613 ft | 390 kts | 263° |
| 2026-04-28 08:30 | 55.46692 | 63.03231 | 16139 ft | 388 kts | 263° |
| 2026-04-28 08:30 | 55.46624 | 62.98575 | 15679 ft | 384 kts | 263° |
| 2026-04-28 08:30 | 55.46528 | 62.93861 | 15218 ft | 382 kts | 262° |
| 2026-04-28 08:31 | 55.46428 | 62.89241 | 14753 ft | 379 kts | 262° |
| 2026-04-28 08:31 | 55.46328 | 62.84631 | 14302 ft | 376 kts | 263° |
| 2026-04-28 08:31 | 55.46228 | 62.80051 | 13846 ft | 373 kts | 263° |
| 2026-04-28 08:31 | 55.46129 | 62.75560 | 13386 ft | 371 kts | 263° |
| 2026-04-28 08:32 | 55.46027 | 62.71010 | 12915 ft | 369 kts | 263° |
| 2026-04-28 08:32 | 55.45924 | 62.66551 | 12459 ft | 367 kts | 263° |
| 2026-04-28 08:32 | 55.45823 | 62.62092 | 11994 ft | 362 kts | 263° |
| 2026-04-28 08:32 | 55.45723 | 62.57718 | 11535 ft | 354 kts | 263° |
| 2026-04-28 08:33 | 55.45625 | 62.53483 | 11103 ft | 346 kts | 263° |
| 2026-04-28 08:33 | 55.45525 | 62.49298 | 10680 ft | 338 kts | 263° |
| 2026-04-28 08:33 | 55.45426 | 62.45207 | 10288 ft | 330 kts | 263° |
| 2026-04-28 08:33 | 55.45332 | 62.41274 | 10083 ft | 316 kts | 263° |
| 2026-04-28 08:34 | 55.45238 | 62.37461 | 9839 ft | 313 kts | 262° |
| 2026-04-28 08:34 | 55.45140 | 62.33646 | 9448 ft | 309 kts | 262° |
| 2026-04-28 08:34 | 55.45043 | 62.29888 | 9087 ft | 306 kts | 262° |
| 2026-04-28 08:34 | 55.44947 | 62.26204 | 8733 ft | 304 kts | 262° |
| 2026-04-28 08:35 | 55.44849 | 62.22484 | 8384 ft | 302 kts | 262° |
| 2026-04-28 08:35 | 55.44752 | 62.18820 | 8046 ft | 300 kts | 262° |
| 2026-04-28 08:35 | 55.44655 | 62.15158 | 7703 ft | 298 kts | 262° |
| 2026-04-28 08:35 | 55.44556 | 62.11553 | 7366 ft | 296 kts | 262° |
| 2026-04-28 08:36 | 55.44457 | 62.07939 | 7020 ft | 295 kts | 262° |
| 2026-04-28 08:36 | 55.44358 | 62.04376 | 6704 ft | 293 kts | 262° |
| 2026-04-28 08:36 | 55.44114 | 62.00897 | 6313 ft | 284 kts | 247° |
| 2026-04-28 08:36 | 55.43045 | 61.98171 | 5969 ft | 269 kts | 217° |
| 2026-04-28 08:37 | 55.41501 | 61.96392 | 5652 ft | 262 kts | 213° |
| 2026-04-28 08:37 | 55.40023 | 61.94597 | 5310 ft | 254 kts | 214° |
| 2026-04-28 08:37 | 55.38650 | 61.92864 | 5012 ft | 235 kts | 214° |
| 2026-04-28 08:37 | 55.37379 | 61.91250 | 4753 ft | 217 kts | 214° |
| 2026-04-28 08:38 | 55.36185 | 61.89735 | 4533 ft | 208 kts | 214° |
| 2026-04-28 08:38 | 55.35001 | 61.88245 | 4506 ft | 211 kts | 213° |
| 2026-04-28 08:38 | 55.33807 | 61.86747 | 4551 ft | 211 kts | 214° |
| 2026-04-28 08:38 | 55.32621 | 61.85251 | 4418 ft | 208 kts | 213° |
| 2026-04-28 08:39 | 55.31461 | 61.83793 | 4149 ft | 205 kts | 213° |
| 2026-04-28 08:39 | 55.30325 | 61.82367 | 3899 ft | 201 kts | 214° |
| 2026-04-28 08:39 | 55.29190 | 61.80940 | 3602 ft | 199 kts | 213° |
| 2026-04-28 08:39 | 55.28082 | 61.79551 | 3344 ft | 196 kts | 213° |
| 2026-04-28 08:40 | 55.27146 | 61.77818 | 3073 ft | 201 kts | 242° |
| 2026-04-28 08:40 | 55.27084 | 61.75380 | 2957 ft | 206 kts | 277° |
| 2026-04-28 08:40 | 55.27475 | 61.73069 | 2950 ft | 191 kts | 276° |
| 2026-04-28 08:40 | 55.27793 | 61.70907 | 2959 ft | 171 kts | 274° |
| 2026-04-28 08:41 | 55.28068 | 61.68927 | 2702 ft | 165 kts | 272° |
| 2026-04-28 08:41 | 55.28321 | 61.67022 | 2417 ft | 158 kts | 272° |
| 2026-04-28 08:41 | 55.28563 | 61.65204 | 2150 ft | 148 kts | 271° |
| 2026-04-28 08:41 | 55.28793 | 61.63509 | 1943 ft | 137 kts | 269° |
| 2026-04-28 08:42 | 55.29005 | 61.61918 | 1768 ft | 134 kts | 272° |
| 2026-04-28 08:42 | 55.29218 | 61.60322 | 1604 ft | 136 kts | 273° |
| 2026-04-28 08:42 | 55.29438 | 61.58697 | 1424 ft | 136 kts | 274° |
| 2026-04-28 08:42 | 55.29660 | 61.57090 | 1240 ft | 137 kts | 274° |
| 2026-04-28 08:43 | 55.29872 | 61.55466 | 1268 ft | 143 kts | 273° |
| 2026-04-28 08:43 | 55.30103 | 61.53649 | 1576 ft | 163 kts | 274° |
| 2026-04-28 08:43 | 55.30392 | 61.51641 | 1839 ft | 175 kts | 280° |
| 2026-04-28 08:43 | 55.30878 | 61.49671 | 2078 ft | 178 kts | 288° |
| 2026-04-28 08:44 | 55.31437 | 61.47713 | 2312 ft | 179 kts | 288° |
| 2026-04-28 08:44 | 55.32000 | 61.45783 | 2552 ft | 179 kts | 288° |
| 2026-04-28 08:44 | 55.32635 | 61.43895 | 2789 ft | 185 kts | 300° |
| 2026-04-28 08:44 | 55.33734 | 61.42562 | 2967 ft | 201 kts | 336° |
| 2026-04-28 08:45 | 55.35097 | 61.42007 | 2992 ft | 203 kts | 345° |
| 2026-04-28 08:45 | 55.36463 | 61.41474 | 2998 ft | 201 kts | 341° |
| 2026-04-28 08:45 | 55.37782 | 61.40760 | 2996 ft | 198 kts | 336° |
| 2026-04-28 08:45 | 55.39065 | 61.39895 | 2999 ft | 196 kts | 333° |
| 2026-04-28 08:46 | 55.40316 | 61.38956 | 2979 ft | 193 kts | 331° |
| 2026-04-28 08:46 | 55.41514 | 61.38023 | 2833 ft | 187 kts | 330° |
| 2026-04-28 08:46 | 55.42708 | 61.37074 | 2582 ft | 191 kts | 330° |
| 2026-04-28 08:46 | 55.43917 | 61.36097 | 2600 ft | 193 kts | 329° |
| 2026-04-28 08:47 | 55.45129 | 61.35087 | 2594 ft | 195 kts | 340° |
| 2026-04-28 08:47 | 55.46473 | 61.34899 | 2606 ft | 196 kts | 351° |
| 2026-04-28 08:47 | 55.47561 | 61.33771 | 2546 ft | 178 kts | 292° |
| 2026-04-28 08:47 | 55.47597 | 61.31827 | 2463 ft | 155 kts | 240° |
| 2026-04-28 08:48 | 55.46980 | 61.30459 | 2453 ft | 138 kts | 205° |
| 2026-04-28 08:48 | 55.46035 | 61.30204 | 2486 ft | 136 kts | 191° |
| 2026-04-28 08:48 | 55.45222 | 61.29406 | 2580 ft | 139 kts | 215° |
| 2026-04-28 08:48 | 55.44498 | 61.28287 | 2573 ft | 141 kts | 228° |
| 2026-04-28 08:49 | 55.44275 | 61.26548 | 2579 ft | 152 kts | 258° |
| 2026-04-28 08:49 | 55.44053 | 61.24832 | 2561 ft | 139 kts | 226° |
| 2026-04-28 08:49 | 55.43208 | 61.24210 | 2574 ft | 137 kts | 183° |
| 2026-04-28 08:49 | 55.42238 | 61.24680 | 2584 ft | 160 kts | 155° |
| 2026-04-28 08:50 | 55.41511 | 61.26262 | 2577 ft | 182 kts | 116° |
| 2026-04-28 08:50 | 55.41201 | 61.28417 | 2695 ft | 176 kts | 127° |
| 2026-04-28 08:50 | 55.40260 | 61.29547 | 2885 ft | 164 kts | 168° |
| 2026-04-28 08:50 | 55.39144 | 61.29942 | 2921 ft | 163 kts | 173° |
| 2026-04-28 08:51 | 55.38028 | 61.29941 | 2936 ft | 161 kts | 184° |
| 2026-04-28 08:51 | 55.36919 | 61.30307 | 3083 ft | 167 kts | 161° |
| 2026-04-28 08:51 | 55.35972 | 61.31547 | 3247 ft | 175 kts | 141° |
| 2026-04-28 08:51 | 55.35148 | 61.33125 | 3387 ft | 175 kts | 140° |
| 2026-04-28 08:52 | 55.34317 | 61.34691 | 3509 ft | 175 kts | 142° |
| 2026-04-28 08:52 | 55.33394 | 61.36048 | 3501 ft | 170 kts | 152° |
| 2026-04-28 08:52 | 55.32392 | 61.37078 | 3213 ft | 173 kts | 151° |
| 2026-04-28 08:52 | 55.31799 | 61.38863 | 2758 ft | 184 kts | 107° |
| 2026-04-28 08:53 | 55.31805 | 61.41187 | 1966 ft | 192 kts | 97° |
| 2026-04-28 08:53 | 55.31605 | 61.43359 | 1615 ft | 173 kts | 113° |
| 2026-04-28 08:53 | 55.31370 | 61.45320 | 1555 ft | 161 kts | 104° |
| 2026-04-28 08:53 | 55.31302 | 61.47400 | 1674 ft | 182 kts | 91° |
| 2026-04-28 08:54 | 55.31918 | 61.49460 | 1754 ft | 204 kts | 47° |
| 2026-04-28 08:54 | 55.33189 | 61.50592 | 1861 ft | 211 kts | 16° |
| 2026-04-28 08:54 | 55.34614 | 61.50543 | 1938 ft | 207 kts | 333° |
| 2026-04-28 08:54 | 55.35806 | 61.49177 | 1983 ft | 202 kts | 315° |
| 2026-04-28 08:55 | 55.36927 | 61.47618 | 1993 ft | 215 kts | 315° |
| 2026-04-28 08:55 | 55.38114 | 61.45963 | 1999 ft | 219 kts | 316° |
| 2026-04-28 08:55 | 55.39338 | 61.44300 | 2101 ft | 231 kts | 317° |
| 2026-04-28 08:55 | 55.40634 | 61.42561 | 2349 ft | 240 kts | 317° |
| 2026-04-28 08:56 | 55.41966 | 61.40792 | 2603 ft | 240 kts | 317° |
| 2026-04-28 08:56 | 55.43309 | 61.39014 | 2854 ft | 241 kts | 317° |
| 2026-04-28 08:56 | 55.44653 | 61.37233 | 2985 ft | 242 kts | 317° |
| 2026-04-28 08:56 | 55.45925 | 61.35383 | 2979 ft | 236 kts | 303° |
| 2026-04-28 08:57 | 55.46534 | 61.32868 | 2983 ft | 218 kts | 266° |
| 2026-04-28 08:57 | 55.46280 | 61.30366 | 2989 ft | 207 kts | 238° |
| 2026-04-28 08:57 | 55.45557 | 61.28172 | 2996 ft | 207 kts | 234° |
| 2026-04-28 08:57 | 55.44767 | 61.26109 | 2976 ft | 199 kts | 220° |
| 2026-04-28 08:58 | 55.43605 | 61.25131 | 2969 ft | 179 kts | 187° |
| 2026-04-28 08:58 | 55.42402 | 61.25234 | 2972 ft | 170 kts | 174° |
| 2026-04-28 08:58 | 55.41274 | 61.25544 | 2917 ft | 157 kts | 174° |
| 2026-04-28 08:58 | 55.40219 | 61.25819 | 2820 ft | 152 kts | 175° |
| 2026-04-28 08:59 | 55.39183 | 61.26069 | 2759 ft | 150 kts | 175° |
| 2026-04-28 08:59 | 55.38127 | 61.26310 | 2816 ft | 162 kts | 176° |
| 2026-04-28 08:59 | 55.36985 | 61.26559 | 2817 ft | 168 kts | 175° |
| 2026-04-28 08:59 | 55.35817 | 61.26816 | 2789 ft | 166 kts | 176° |
| 2026-04-28 09:00 | 55.34685 | 61.27103 | 2781 ft | 164 kts | 169° |
| 2026-04-28 09:00 | 55.33755 | 61.28185 | 2786 ft | 162 kts | 135° |
| 2026-04-28 09:00 | 55.33329 | 61.30028 | 2785 ft | 165 kts | 112° |
| 2026-04-28 09:00 | 55.33074 | 61.31940 | 2747 ft | 155 kts | 111° |
| 2026-04-28 09:01 | 55.32848 | 61.33727 | 2472 ft | 145 kts | 112° |
| 2026-04-28 09:01 | 55.32655 | 61.35403 | 2207 ft | 139 kts | 112° |
| 2026-04-28 09:01 | 55.32448 | 61.37054 | 1985 ft | 136 kts | 113° |
| 2026-04-28 09:01 | 55.32231 | 61.38646 | 1812 ft | 135 kts | 114° |
| 2026-04-28 09:02 | 55.32001 | 61.40254 | 1642 ft | 134 kts | 114° |
| 2026-04-28 09:02 | 55.31779 | 61.41831 | 1458 ft | 133 kts | 113° |
| 2026-04-28 09:02 | 55.31557 | 61.43401 | 1285 ft | 133 kts | 112° |
| 2026-04-28 09:02 | 55.31342 | 61.44967 | 1065 ft | 131 kts | 111° |
| 2026-04-28 09:03 | 55.31123 | 61.46525 | 907 ft | 132 kts | 111° |
| 2026-04-28 09:03 | 55.30902 | 61.48059 | 765 ft | 131 kts | 110° |
| 2026-04-28 09:03 | 55.30698 | 61.49450 | 761 ft | 96 kts | 104° |
| 2026-04-28 09:03 | 55.30560 | 61.50428 | 752 ft | 76 kts | 102° |
| 2026-04-28 09:04 | 55.30455 | 61.51236 | 746 ft | 58 kts | 104° |
| 2026-04-28 09:04 | 55.30365 | 61.51890 | 739 ft | 53 kts | 104° |
| 2026-04-28 09:04 | 55.30293 | 61.52414 | 734 ft | 27 kts | 104° |
| 2026-04-28 09:04 | 55.30254 | 61.52685 | 730 ft | 20 kts | 104° |
| 2026-04-28 09:05 | 55.30172 | 61.52755 | 729 ft | 12 kts | 194° |
| 2026-04-28 09:05 | 55.30086 | 61.52719 | 729 ft | 14 kts | 193° |
| 2026-04-28 09:05 | 55.29978 | 61.52602 | 732 ft | 23 kts | 220° |
| 2026-04-28 09:05 | 55.29878 | 61.52407 | 736 ft | 13 kts | 277° |
| 2026-04-28 09:06 | 55.29910 | 61.52169 | 737 ft | 30 kts | 282° |
| 2026-04-28 09:06 | 55.29950 | 61.51877 | 739 ft | 21 kts | 284° |
| 2026-04-28 09:06 | 55.29980 | 61.51651 | 740 ft | 17 kts | 273° |
| 2026-04-28 09:06 | 55.29905 | 61.51540 | 740 ft | 12 kts | 216° |
| 2026-04-28 09:07 | 55.29906 | 61.51376 | 743 ft | 27 kts | 283° |
| 2026-04-28 09:07 | 55.29941 | 61.51131 | 744 ft | 16 kts | 284° |
| 2026-04-28 09:07 | 55.29929 | 61.50998 | 745 ft | 9 kts | 206° |
| 2026-04-28 09:07 | 55.29883 | 61.50977 | 745 ft | 0 kts | 194° |